Time;durP1;ratioP1;P1;durP2;ratioP2;P2;SDS_P1;SDS_P2;PMS_P1;PMS_P2;Temp;Humidity;BMP_temperature;BMP_pressure;BME280_temperature;BME280_humidity;BME280_pressure;Samples;Min_cycle;Max_cycle;Signal;HPM_P1;HPM_P2
2021/07/31 00:02:52;;;;;;;5.72;4.25;;;;;;;18.02;68.95;100287.53;10434147;28;20041;-75
2021/07/31 00:07:52;;;;;;;4.20;3.40;;;;;;;17.88;70.12;100323.59;10454008;28;20108;-75
2021/07/31 00:12:53;;;;;;;5.68;4.68;;;;;;;17.78;71.22;100306.25;10450740;28;20429;-75
2021/07/31 00:17:53;;;;;;;14.00;4.22;;;;;;;17.79;70.32;100327.06;10450758;28;20075;-75
2021/07/31 00:22:54;;;;;;;4.75;3.40;;;;;;;17.91;69.88;100335.13;10434292;28;20477;-75
2021/07/31 00:27:54;;;;;;;7.05;4.18;;;;;;;17.96;69.07;100329.69;10452891;28;20041;-75
2021/07/31 00:32:55;;;;;;;20.77;5.60;;;;;;;18.04;68.64;100327.31;10474431;28;20415;-75
2021/07/31 00:37:56;;;;;;;3.80;3.47;;;;;;;18.00;70.23;100325.34;10492384;28;20040;-76
2021/07/31 00:42:56;;;;;;;3.88;3.47;;;;;;;17.67;71.67;100329.94;10490419;28;20036;-75
2021/07/31 00:47:57;;;;;;;16.20;4.45;;;;;;;17.61;70.87;100342.75;10489744;28;20072;-76
2021/07/31 00:52:57;;;;;;;8.93;4.13;;;;;;;17.72;69.92;100343.69;10471733;28;20475;-76
2021/07/31 00:57:58;;;;;;;4.10;3.47;;;;;;;17.55;69.72;100321.03;10472600;28;20108;-76
2021/07/31 01:02:58;;;;;;;13.25;3.60;;;;;;;17.35;71.12;100330.69;10491805;28;20193;-76
2021/07/31 01:07:59;;;;;;;6.68;5.22;;;;;;;17.06;70.63;100258.94;10489632;28;20140;-76
2021/07/31 01:13:00;;;;;;;8.63;4.65;;;;;;;17.65;70.74;100334.84;10471533;28;20146;-78
2021/07/31 01:18:00;;;;;;;6.30;3.50;;;;;;;17.07;71.80;100267.97;10472435;28;20101;-76
2021/07/31 01:23:00;;;;;;;4.28;2.85;;;;;;;17.53;72.77;100340.47;10492902;28;20109;-76
2021/07/31 01:28:01;;;;;;;15.13;4.00;;;;;;;17.68;72.11;100342.56;10495506;28;20185;-76
2021/07/31 01:33:01;;;;;;;8.00;4.78;;;;;;;17.40;72.68;100314.31;10493549;28;20133;-77
2021/07/31 01:38:02;;;;;;;8.35;4.63;;;;;;;17.51;73.42;100345.38;10474462;28;20032;-77
2021/07/31 01:43:02;;;;;;;8.13;5.75;;;;;;;17.62;73.75;100352.63;10474111;28;20032;-77
2021/07/31 01:48:03;;;;;;;10.98;6.57;;;;;;;17.80;72.64;100345.16;10456610;28;20111;-77
2021/07/31 01:53:04;;;;;;;11.13;4.75;;;;;;;17.25;73.65;100284.03;10490620;28;20048;-78
2021/07/31 01:58:04;;;;;;;27.50;5.53;;;;;;;17.76;72.49;100349.47;10490341;28;20407;-78
2021/07/31 02:03:04;;;;;;;8.10;5.75;;;;;;;17.75;72.26;100354.13;10490406;28;20044;-77
2021/07/31 02:08:05;;;;;;;18.15;7.40;;;;;;;17.55;72.39;100348.41;10489871;28;20116;-79
2021/07/31 02:13:05;;;;;;;7.88;5.88;;;;;;;17.37;72.51;100309.38;10474083;28;20068;-78
2021/07/31 02:18:06;;;;;;;9.60;6.85;;;;;;;17.77;72.53;100368.41;10490926;28;20136;-78
2021/07/31 02:23:06;;;;;;;22.60;8.30;;;;;;;17.63;73.19;100372.59;10498339;28;20554;-78
2021/07/31 02:28:06;;;;;;;11.55;7.22;;;;;;;17.55;73.40;100362.09;10480134;28;20151;-78
2021/07/31 02:33:07;;;;;;;10.27;4.80;;;;;;;17.55;72.36;100381.25;10499858;28;20548;-78
2021/07/31 02:38:07;;;;;;;14.45;5.28;;;;;;;17.47;72.81;100379.00;10485084;28;20036;-78
2021/07/31 02:43:08;;;;;;;8.27;5.75;;;;;;;17.61;71.90;100377.50;10481524;28;20056;-78
2021/07/31 02:48:08;;;;;;;11.10;5.50;;;;;;;17.60;71.72;100389.53;10497026;28;20032;-78
2021/07/31 02:53:09;;;;;;;6.43;5.50;;;;;;;17.71;71.20;100385.84;10495966;28;20067;-79
2021/07/31 02:58:09;;;;;;;11.10;6.03;;;;;;;17.82;71.02;100386.81;10498514;28;20040;-78
2021/07/31 03:03:09;;;;;;;10.90;5.40;;;;;;;17.60;71.55;100386.81;10479333;28;20072;-78
2021/07/31 03:08:10;;;;;;;16.15;6.15;;;;;;;17.66;71.06;100372.91;10495509;28;20028;-78
2021/07/31 03:13:10;;;;;;;14.95;6.32;;;;;;;17.93;70.18;100395.94;10495221;28;20056;-78
2021/07/31 03:18:11;;;;;;;11.52;5.55;;;;;;;17.65;70.68;100373.19;10462657;28;20073;-78
2021/07/31 03:23:13;;;;;;;23.50;4.72;;;;;;;17.76;69.88;100393.28;10478700;28;20049;-78
2021/07/31 03:28:14;;;;;;;8.20;5.03;;;;;;;17.62;69.54;100398.34;10495132;28;20104;-78
2021/07/31 03:33:14;;;;;;;6.43;3.80;;;;;;;17.55;69.12;100394.94;10495502;28;20210;-78
2021/07/31 03:38:14;;;;;;;6.65;3.65;;;;;;;17.52;69.48;100415.47;10494126;28;20471;-78
2021/07/31 03:43:15;;;;;;;4.75;3.90;;;;;;;17.56;69.28;100410.31;10477972;28;20345;-78
2021/07/31 03:48:15;;;;;;;8.30;3.35;;;;;;;17.56;69.21;100399.38;10494790;28;20431;-78
2021/07/31 03:53:16;;;;;;;9.65;3.75;;;;;;;17.57;68.86;100417.44;10479265;28;20472;-78
2021/07/31 03:58:16;;;;;;;6.38;3.08;;;;;;;17.63;68.16;100436.41;10491877;28;20094;-78
2021/07/31 04:03:17;;;;;;;6.63;3.15;;;;;;;17.58;69.00;100425.41;10491841;28;20462;-78
2021/07/31 04:08:17;;;;;;;5.75;2.72;;;;;;;17.54;68.04;100434.38;10471983;28;20115;-78
2021/07/31 04:13:18;;;;;;;7.70;3.38;;;;;;;17.80;68.33;100449.22;10490542;28;20056;-78
2021/07/31 04:18:18;;;;;;;5.57;3.15;;;;;;;17.60;68.35;100442.38;10471852;28;20036;-79
2021/07/31 04:23:18;;;;;;;6.53;3.85;;;;;;;17.65;68.59;100452.59;10490732;28;20462;-79
2021/07/31 04:28:19;;;;;;;3.83;2.92;;;;;;;17.74;68.60;100464.75;10492497;28;20086;-79
2021/07/31 04:33:19;;;;;;;4.63;3.08;;;;;;;17.62;70.32;100466.78;10450288;28;20060;-78
2021/07/31 04:38:20;;;;;;;7.03;3.22;;;;;;;17.61;69.79;100468.72;10451872;28;20122;-78
2021/07/31 04:43:20;;;;;;;5.78;3.35;;;;;;;17.65;70.09;100458.91;10451962;28;20037;-78
2021/07/31 04:48:21;;;;;;;4.63;3.55;;;;;;;17.44;69.71;100413.19;10449490;28;20091;-78
2021/07/31 04:53:21;;;;;;;9.60;3.80;;;;;;;17.93;69.49;100484.44;10450065;28;20041;-78
2021/07/31 04:58:22;;;;;;;5.65;3.35;;;;;;;17.76;70.21;100492.69;10449175;28;20336;-78
2021/07/31 05:03:22;;;;;;;10.48;3.70;;;;;;;17.99;68.74;100485.31;10448644;28;20033;-78
2021/07/31 05:08:23;;;;;;;10.50;5.03;;;;;;;17.92;68.41;100485.53;10450694;28;20033;-78
2021/07/31 05:13:23;;;;;;;2.95;2.75;;;;;;;17.98;69.00;100500.13;10448990;28;20032;-78
2021/07/31 05:18:23;;;;;;;10.60;4.15;;;;;;;17.13;68.65;100387.31;10450169;28;20041;-78
2021/07/31 05:23:24;;;;;;;3.83;3.17;;;;;;;18.00;67.65;100500.69;10456921;28;20025;-78
2021/07/31 05:28:24;;;;;;;4.45;2.78;;;;;;;17.91;67.62;100510.44;10456032;28;20029;-78
2021/07/31 05:33:25;;;;;;;18.30;3.53;;;;;;;17.54;68.26;100459.00;10489223;28;20048;-78
2021/07/31 05:38:25;;;;;;;6.43;3.45;;;;;;;18.08;67.83;100520.22;10498498;28;20040;-78
2021/07/31 05:43:26;;;;;;;3.40;2.92;;;;;;;18.23;67.30;100516.84;10480670;28;20048;-78
2021/07/31 05:48:26;;;;;;;9.30;3.92;;;;;;;17.82;68.06;100458.84;10498014;28;20029;-78
2021/07/31 05:53:27;;;;;;;6.63;2.92;;;;;;;18.10;68.39;100526.28;10499285;28;20066;-78
2021/07/31 05:58:28;;;;;;;2.50;2.30;;;;;;;18.14;68.79;100526.59;10504764;28;20218;-78
2021/07/31 06:03:28;;;;;;;11.07;3.72;;;;;;;18.30;68.76;100531.16;10488047;28;20062;-78
2021/07/31 06:08:29;;;;;;;2.95;2.72;;;;;;;18.60;67.94;100527.06;10487064;28;20024;-78
2021/07/31 06:13:29;;;;;;;2.22;2.13;;;;;;;18.65;68.17;100516.16;10504295;28;20486;-78
2021/07/31 06:18:30;;;;;;;8.70;2.92;;;;;;;18.75;67.38;100537.38;10504014;28;20431;-79
2021/07/31 06:23:30;;;;;;;3.38;2.40;;;;;;;18.72;66.87;100541.47;10503994;28;20559;-78
2021/07/31 06:28:31;;;;;;;11.50;3.45;;;;;;;18.49;67.51;100541.78;10504071;28;20123;-78
2021/07/31 06:33:32;;;;;;;3.60;2.90;;;;;;;18.44;68.06;100558.16;10505617;28;20483;-78
2021/07/31 06:38:32;;;;;;;12.23;3.35;;;;;;;18.72;67.23;100557.06;10501886;28;20060;-77
2021/07/31 06:43:33;;;;;;;2.92;2.63;;;;;;;18.69;67.56;100552.94;10497006;28;20122;-78
2021/07/31 06:48:33;;;;;;;5.80;2.90;;;;;;;18.68;67.61;100558.69;10493238;28;20024;-77
2021/07/31 06:53:33;;;;;;;6.25;3.58;;;;;;;17.94;69.46;100546.38;10493268;28;20036;-78
2021/07/31 06:58:34;;;;;;;4.25;3.35;;;;;;;17.80;71.64;100569.72;10477389;28;20060;-78
2021/07/31 07:03:34;;;;;;;5.82;3.63;;;;;;;17.89;72.29;100508.78;10495097;28;20147;-78
2021/07/31 07:08:35;;;;;;;4.68;3.33;;;;;;;18.23;71.53;100576.31;10458966;28;20113;-78
2021/07/31 07:13:36;;;;;;;9.30;3.58;;;;;;;18.09;71.97;100578.59;10496015;28;20032;-78
2021/07/31 07:18:36;;;;;;;7.80;3.30;;;;;;;18.90;72.11;100581.44;10478638;28;20090;-77
2021/07/31 07:23:37;;;;;;;3.20;2.70;;;;;;;19.23;70.64;100577.56;10496621;28;20119;-78
2021/07/31 07:28:37;;;;;;;7.90;3.17;;;;;;;19.24;70.41;100595.72;10459992;28;20350;-80
2021/07/31 07:33:38;;;;;;;14.38;3.13;;;;;;;18.98;69.94;100607.56;10495069;28;20139;-79
2021/07/31 07:38:39;;;;;;;2.60;2.40;;;;;;;18.59;70.19;100593.97;10477110;28;20044;-78
2021/07/31 07:43:39;;;;;;;4.30;2.35;;;;;;;18.87;71.14;100611.31;10495598;28;20116;-78
2021/07/31 07:48:41;;;;;;;4.05;2.78;;;;;;;19.15;70.36;100558.03;10495517;28;20058;-77
2021/07/31 07:53:41;;;;;;;7.07;3.78;;;;;;;19.37;69.84;100621.91;10498289;28;20032;-78
2021/07/31 07:58:42;;;;;;;2.67;2.47;;;;;;;18.81;70.75;100626.88;10477469;28;20033;-78
2021/07/31 08:03:42;;;;;;;4.25;2.90;;;;;;;18.29;71.13;100611.75;10477702;28;20052;-78
2021/07/31 08:08:43;;;;;;;3.97;3.67;;;;;;;18.32;71.47;100593.97;10495678;28;20032;-78
2021/07/31 08:13:43;;;;;;;6.65;4.07;;;;;;;18.99;72.00;100644.91;10495561;28;20119;-78
2021/07/31 08:18:44;;;;;;;10.10;4.57;;;;;;;19.63;70.71;100655.03;10493207;28;20360;-79
2021/07/31 08:23:44;;;;;;;5.13;4.63;;;;;;;20.47;69.46;100651.41;10493621;28;20036;-79
2021/07/31 08:28:45;;;;;;;12.85;5.07;;;;;;;20.57;69.15;100645.97;10493728;28;20037;-79
2021/07/31 08:33:46;;;;;;;7.47;4.20;;;;;;;20.88;67.09;100654.31;10476215;28;20126;-79
2021/07/31 08:38:46;;;;;;;10.35;2.95;;;;;;;22.16;66.55;100655.09;10492769;28;20476;-79
2021/07/31 08:43:46;;;;;;;4.70;4.13;;;;;;;21.09;64.91;100667.00;10475633;28;20040;-79
2021/07/31 08:48:47;;;;;;;11.75;4.47;;;;;;;19.69;67.79;100586.16;10492126;28;20140;-79
2021/07/31 08:53:47;;;;;;;7.50;4.15;;;;;;;21.00;65.35;100673.34;10492133;28;20042;-79
2021/07/31 08:58:48;;;;;;;7.78;4.00;;;;;;;20.60;65.13;100656.44;10458617;28;20037;-79
2021/07/31 09:03:50;;;;;;;4.25;3.75;;;;;;;20.87;63.58;100660.91;10492298;28;20526;-79
2021/07/31 09:08:52;;;;;;;6.85;5.32;;;;;;;21.22;64.01;100684.06;10474620;28;20107;-82
2021/07/31 09:14:11;;;;;;;14.32;5.68;;;;;;;21.06;65.54;100703.34;10493238;28;20131;-78
2021/07/31 09:19:13;;;;;;;11.50;5.53;;;;;;;20.16;64.90;100640.25;10475280;28;20055;-77
2021/07/31 09:24:20;;;;;;;3.83;3.30;;;;;;;21.14;64.11;100719.31;10492250;28;20032;-77
2021/07/31 09:29:28;;;;;;;16.33;3.85;;;;;;;21.25;62.63;100736.72;10476347;28;20032;-79
2021/07/31 09:34:44;;;;;;;9.32;3.08;;;;;;;21.72;63.79;100723.81;10499417;28;20052;-80
2021/07/31 09:40:02;;;;;;;7.03;3.85;;;;;;;21.82;61.61;100721.03;10483337;28;20032;-79
2021/07/31 09:45:07;;;;;;;8.38;3.22;;;;;;;22.41;59.10;100728.69;10498710;28;20040;-79
2021/07/31 09:50:08;;;;;;;4.07;2.63;;;;;;;22.64;58.87;100738.25;10498097;28;20029;-78
2021/07/31 09:55:09;;;;;;;2.92;2.72;;;;;;;23.75;57.36;100745.38;10478429;28;20398;-79
2021/07/31 10:00:10;;;;;;;7.22;3.28;;;;;;;23.57;57.11;100744.91;10494978;28;20095;-78
2021/07/31 10:05:10;;;;;;;4.45;3.50;;;;;;;24.95;53.49;100751.00;10496295;28;20487;-78
2021/07/31 10:10:11;;;;;;;2.65;2.45;;;;;;;26.01;52.62;100753.31;10460847;28;20334;-79
2021/07/31 10:15:11;;;;;;;7.28;2.95;;;;;;;25.36;52.86;100750.47;10477300;28;20115;-78
2021/07/31 10:20:24;;;;;;;5.70;3.00;;;;;;;26.41;51.37;100757.25;10477191;28;20081;-79
2021/07/31 10:25:25;;;;;;;9.02;4.47;;;;;;;27.27;49.00;100769.69;10480487;28;20191;-78
2021/07/31 10:30:38;;;;;;;3.47;2.45;;;;;;;25.93;51.72;100754.81;10494785;28;20147;-78
2021/07/31 10:35:39;;;;;;;5.78;2.65;;;;;;;26.02;50.99;100773.56;10494080;28;20124;-78
2021/07/31 10:40:41;;;;;;;4.93;3.55;;;;;;;26.56;51.33;100786.72;10457908;28;20041;-78
2021/07/31 10:45:41;;;;;;;15.57;3.72;;;;;;;27.41;48.59;100767.72;10493296;28;20419;-78
2021/07/31 10:50:43;;;;;;;4.25;3.33;;;;;;;25.95;50.53;100777.53;10474938;28;20067;-81
2021/07/31 10:55:58;;;;;;;5.03;3.53;;;;;;;25.00;51.93;100792.50;10474253;28;20374;-78
2021/07/31 11:01:34;;;;;;;11.27;3.15;;;;;;;24.76;53.97;100792.50;10475143;28;20037;-78
2021/07/31 11:07:09;;;;;;;4.10;3.15;;;;;;;26.36;51.04;100785.13;10393627;28;20048;-77
2021/07/31 11:12:39;;;;;;;6.20;2.88;;;;;;;26.58;51.29;100806.69;10474725;28;20043;-77
2021/07/31 11:17:40;;;;;;;2.40;2.30;;;;;;;26.17;49.68;100807.41;10465702;28;20079;-78
2021/07/31 11:22:41;;;;;;;2.42;1.88;;;;;;;24.94;51.24;100813.91;10475252;28;20051;-79
2021/07/31 11:27:53;;;;;;;6.95;2.42;;;;;;;24.06;54.04;100837.22;10462526;28;20384;-79
2021/07/31 11:32:54;;;;;;;1.83;1.73;;;;;;;23.66;53.43;100831.66;10479783;28;20140;-77
2021/07/31 11:37:54;;;;;;;4.03;2.70;;;;;;;23.51;54.75;100828.16;10477699;28;20432;-77
2021/07/31 11:42:58;;;;;;;3.83;2.58;;;;;;;23.84;57.49;100844.03;10494362;28;20036;-76
2021/07/31 11:47:58;;;;;;;3.33;3.03;;;;;;;23.54;58.02;100838.66;10491852;28;20151;-77
2021/07/31 11:52:59;;;;;;;10.77;3.05;;;;;;;23.94;56.86;100837.59;10472884;28;20117;-77
2021/07/31 11:58:00;;;;;;;8.70;3.40;;;;;;;24.14;54.90;100847.66;10439981;28;20613;-77
2021/07/31 12:03:00;;;;;;;2.70;2.50;;;;;;;23.58;56.12;100842.50;10475915;28;20424;-77
2021/07/31 12:08:00;;;;;;;3.70;3.00;;;;;;;23.74;55.96;100844.09;10488420;28;20032;-77
2021/07/31 12:13:08;;;;;;;5.30;3.25;;;;;;;22.96;55.96;100801.38;10489308;28;20051;-76
2021/07/31 12:18:09;;;;;;;5.15;3.25;;;;;;;22.97;56.63;100838.94;10455633;28;20568;-76
2021/07/31 12:23:10;;;;;;;3.60;2.72;;;;;;;23.70;56.25;100851.28;10490449;28;20099;-77
2021/07/31 12:28:12;;;;;;;2.35;2.15;;;;;;;24.35;53.86;100860.19;10474426;28;20036;-76
2021/07/31 12:33:18;;;;;;;2.00;1.90;;;;;;;24.08;54.36;100870.94;10473437;28;20167;-77
2021/07/31 12:38:22;;;;;;;4.85;2.75;;;;;;;23.90;53.26;100829.03;10457836;28;20045;-78
2021/07/31 12:43:24;;;;;;;2.28;1.80;;;;;;;24.50;53.47;100822.44;10457044;28;20436;-77
2021/07/31 12:48:25;;;;;;;2.53;2.33;;;;;;;25.20;51.08;100864.31;10473883;28;20323;-76
2021/07/31 12:53:28;;;;;;;2.58;2.40;;;;;;;25.60;48.98;100872.38;10473617;28;20035;-77
2021/07/31 12:58:28;;;;;;;2.90;2.30;;;;;;;26.83;49.02;100866.47;10458083;28;20100;-77
2021/07/31 13:03:28;;;;;;;2.58;2.38;;;;;;;27.37;47.27;100864.00;10491067;28;20127;-75
2021/07/31 13:08:29;;;;;;;4.00;2.13;;;;;;;27.34;46.52;100887.69;10473477;28;20024;-77
2021/07/31 13:13:29;;;;;;;4.15;2.30;;;;;;;28.18;46.13;100880.78;10491776;28;20440;-77
2021/07/31 13:18:30;;;;;;;3.03;2.38;;;;;;;28.14;44.91;100884.50;10455926;28;20505;-77
2021/07/31 13:23:34;;;;;;;6.97;2.83;;;;;;;28.18;43.69;100886.38;10475231;28;20114;-77
2021/07/31 13:28:34;;;;;;;2.47;2.35;;;;;;;28.36;42.30;100901.22;10475633;28;20479;-79
2021/07/31 13:33:36;;;;;;;2.97;2.03;;;;;;;28.84;44.66;100877.41;10492352;28;20093;-77
2021/07/31 13:38:37;;;;;;;2.33;1.95;;;;;;;28.73;43.44;100904.75;10473875;28;20036;-77
2021/07/31 13:43:43;;;;;;;7.13;2.25;;;;;;;28.70;43.80;100895.06;10491877;28;20043;-78
2021/07/31 13:48:43;;;;;;;;;;;;;;;27.84;45.09;100911.94;10474431;28;20035;-78
2021/07/31 13:53:44;;;;;;;13.35;2.42;;;;;;;27.47;45.47;100913.00;10457620;28;20400;-76
2021/07/31 13:58:44;;;;;;;2.42;1.90;;;;;;;27.44;44.52;100852.44;10492269;28;20047;-78
2021/07/31 14:03:45;;;;;;;4.63;2.08;;;;;;;27.77;42.33;100906.81;10473366;28;20522;-78
2021/07/31 14:08:45;;;;;;;6.78;3.20;;;;;;;27.49;45.67;100910.75;10490980;28;20544;-77
2021/07/31 14:13:45;;;;;;;4.85;3.15;;;;;;;27.07;46.57;100913.53;10456818;28;20048;-78
2021/07/31 14:18:48;;;;;;;4.63;4.22;;;;;;;26.25;47.30;100844.75;10498813;28;20032;-82
2021/07/31 14:23:48;;;;;;;2.47;2.22;;;;;;;26.56;47.41;100916.44;10479935;27;20036;-80
2021/07/31 14:28:48;;;;;;;4.18;2.50;;;;;;;26.21;45.99;100840.94;10499270;28;20040;-81
2021/07/31 14:33:50;;;;;;;3.65;3.10;;;;;;;26.03;45.85;100812.09;10438033;28;20124;-81
2021/07/31 14:38:50;;;;;;;3.50;2.85;;;;;;;26.19;47.74;100920.91;10454823;28;20059;-81
2021/07/31 14:43:51;;;;;;;2.55;2.35;;;;;;;26.56;46.79;100925.59;10452999;28;20033;-81
2021/07/31 14:48:55;;;;;;;2.95;2.75;;;;;;;26.46;47.41;100913.81;10438422;28;20037;-81
2021/07/31 14:53:55;;;;;;;3.05;1.98;;;;;;;26.46;47.46;100934.06;10452464;28;20097;-81
2021/07/31 14:58:56;;;;;;;5.60;3.35;;;;;;;25.56;46.76;100866.63;10453121;28;20075;-81
2021/07/31 15:03:58;;;;;;;3.05;2.70;;;;;;;25.83;47.48;100918.66;10436997;28;20075;-81
2021/07/31 15:08:58;;;;;;;7.65;2.80;;;;;;;26.59;46.01;100932.50;10452285;28;20041;-81
2021/07/31 15:13:58;;;;;;;2.28;2.08;;;;;;;26.76;44.90;100921.63;10452631;28;20448;-81
2021/07/31 15:18:59;;;;;;;6.10;2.30;;;;;;;26.54;47.36;100902.84;10452049;28;20100;-81
2021/07/31 15:24:00;;;;;;;5.85;2.55;;;;;;;27.00;45.29;100926.19;10451131;28;20120;-81
2021/07/31 15:29:01;;;;;;;3.00;2.03;;;;;;;26.78;46.81;100927.69;10452501;28;20114;-81
2021/07/31 15:34:01;;;;;;;2.28;2.17;;;;;;;26.48;48.16;100926.28;10480901;28;20157;-81
2021/07/31 15:39:03;;;;;;;3.15;2.70;;;;;;;25.92;47.51;100936.28;10495129;28;20062;-81
2021/07/31 15:44:05;;;;;;;2.35;2.15;;;;;;;26.06;48.34;100936.34;10459251;28;20052;-81
2021/07/31 15:49:06;;;;;;;6.47;2.75;;;;;;;25.69;47.60;100939.94;10477092;28;20430;-81
2021/07/31 15:54:07;;;;;;;2.58;2.10;;;;;;;25.32;48.91;100879.69;10496123;28;20172;-80
2021/07/31 15:59:08;;;;;;;3.47;2.88;;;;;;;25.26;47.40;100931.59;10493454;28;20526;-81
2021/07/31 16:04:08;;;;;;;4.32;2.95;;;;;;;25.36;47.91;100936.19;10477807;28;20044;-80
2021/07/31 16:09:10;;;;;;;7.03;2.70;;;;;;;25.31;47.50;100931.53;10473903;28;20028;-81
2021/07/31 16:14:12;;;;;;;2.60;2.35;;;;;;;25.37;47.84;100857.47;10475477;28;20047;-80
2021/07/31 16:19:14;;;;;;;3.00;2.70;;;;;;;25.70;45.95;100911.88;10478151;28;20032;-80
2021/07/31 16:24:16;;;;;;;12.82;2.58;;;;;;;25.52;47.04;100923.78;10476220;28;20067;-81
2021/07/31 16:29:18;;;;;;;1.73;1.63;;;;;;;25.02;48.68;100924.09;10474433;28;20077;-80
2021/07/31 16:34:19;;;;;;;2.65;1.90;;;;;;;24.54;48.68;100896.31;10431151;28;20056;-80
2021/07/31 16:39:19;;;;;;;6.78;2.30;;;;;;;24.62;48.30;100913.41;10415211;28;20460;-81
2021/07/31 16:44:20;;;;;;;2.25;2.05;;;;;;;24.23;49.79;100915.09;10432153;28;20041;-81
2021/07/31 16:49:22;;;;;;;2.20;2.10;;;;;;;23.65;49.34;100917.66;10434947;28;20108;-81
2021/07/31 16:54:23;;;;;;;3.75;2.70;;;;;;;23.54;50.72;100924.34;10431627;28;20361;-81
2021/07/31 16:59:26;;;;;;;3.47;2.40;;;;;;;23.51;51.44;100922.16;10416703;28;20033;-81
2021/07/31 17:04:27;;;;;;;3.72;2.17;;;;;;;23.35;51.08;100878.00;10416635;28;20337;-81
2021/07/31 17:09:28;;;;;;;14.80;2.30;;;;;;;23.36;51.24;100923.88;10415077;28;20049;-81
2021/07/31 17:14:31;;;;;;;6.15;2.85;;;;;;;22.73;52.47;100843.41;10432140;28;20410;-81
2021/07/31 17:19:32;;;;;;;4.45;2.75;;;;;;;22.68;52.07;100860.78;10413991;28;20063;-81
2021/07/31 17:24:34;;;;;;;3.70;2.10;;;;;;;22.66;52.42;100862.19;10429067;28;20116;-80
2021/07/31 17:29:34;;;;;;;4.35;2.45;;;;;;;22.76;52.79;100920.16;10414325;28;20041;-81
2021/07/31 17:34:35;;;;;;;2.97;2.78;;;;;;;22.42;52.37;100893.13;10404678;28;20055;-80
2021/07/31 17:39:38;;;;;;;3.38;2.20;;;;;;;22.61;52.48;100933.97;10447515;28;20044;-81
2021/07/31 17:44:40;;;;;;;3.00;2.72;;;;;;;22.49;53.09;100935.09;10450788;28;20037;-81
2021/07/31 17:49:43;;;;;;;4.65;3.35;;;;;;;22.25;54.46;100931.22;10455917;28;20402;-80
2021/07/31 17:54:44;;;;;;;3.42;3.03;;;;;;;21.71;55.28;100824.13;10461063;28;20400;-80
2021/07/31 17:59:50;;;;;;;5.10;2.88;;;;;;;22.19;54.86;100921.28;10444009;28;20045;-81
2021/07/31 18:04:51;;;;;;;3.88;3.45;;;;;;;22.10;55.35;100922.88;10453951;28;20162;-81
2021/07/31 18:09:52;;;;;;;3.65;3.35;;;;;;;22.05;55.48;100924.53;10456204;28;20060;-81
2021/07/31 18:14:53;;;;;;;4.82;3.50;;;;;;;21.52;56.40;100829.34;10424276;28;20033;-80
2021/07/31 18:19:53;;;;;;;3.20;2.80;;;;;;;21.99;55.43;100935.84;10440922;28;20127;-80
2021/07/31 18:24:54;;;;;;;3.33;2.95;;;;;;;21.59;57.54;100921.66;10455712;28;20047;-80
2021/07/31 18:29:55;;;;;;;3.25;2.58;;;;;;;21.58;56.61;100931.03;10437740;28;20496;-81
2021/07/31 18:34:58;;;;;;;7.45;4.10;;;;;;;21.57;56.89;100937.66;10489193;28;20056;-80
2021/07/31 18:39:59;;;;;;;4.25;3.60;;;;;;;21.52;57.25;100926.59;10466425;28;20094;-80
2021/07/31 18:45:02;;;;;;;5.43;3.85;;;;;;;20.90;57.39;100864.06;10483743;28;20558;-81
2021/07/31 18:50:08;;;;;;;3.92;3.63;;;;;;;21.20;57.77;100936.91;10499421;28;20115;-81
2021/07/31 18:55:11;;;;;;;4.03;3.63;;;;;;;20.96;58.19;100936.47;10499222;28;20044;-81
2021/07/31 19:00:14;;;;;;;6.45;4.40;;;;;;;20.94;57.88;100945.00;10495067;28;20284;-81
2021/07/31 19:05:18;;;;;;;6.20;3.92;;;;;;;20.87;58.12;100945.25;10460986;28;20032;-81
2021/07/31 19:10:19;;;;;;;5.05;3.95;;;;;;;20.78;58.28;100949.59;10478085;28;20081;-81
2021/07/31 19:15:22;;;;;;;4.30;3.90;;;;;;;20.56;58.66;100946.94;10478880;28;20127;-81
2021/07/31 19:20:33;;;;;;;6.25;4.80;;;;;;;20.50;58.52;100942.47;10479822;28;20036;-80
2021/07/31 19:25:33;;;;;;;5.45;3.85;;;;;;;20.43;59.13;100941.84;10462191;28;20097;-80
2021/07/31 19:30:41;;;;;;;6.93;4.85;;;;;;;20.34;58.78;100946.16;10463099;28;20057;-81
2021/07/31 19:35:41;;;;;;;5.35;4.32;;;;;;;20.26;59.46;100952.13;10497926;28;20072;-81
2021/07/31 19:40:45;;;;;;;4.13;3.75;;;;;;;19.96;60.02;100920.50;10477485;28;20041;-81
2021/07/31 19:45:47;;;;;;;6.15;4.07;;;;;;;20.06;59.65;100947.28;10492629;28;20060;-81
2021/07/31 19:50:48;;;;;;;4.22;3.92;;;;;;;19.72;60.17;100906.25;10459881;28;20044;-81
2021/07/31 19:56:03;;;;;;;5.18;3.95;;;;;;;19.83;59.90;100948.41;10474317;28;20127;-80
2021/07/31 20:01:07;;;;;;;4.45;3.95;;;;;;;19.66;59.99;100938.34;10485064;28;20425;-81
2021/07/31 20:06:08;;;;;;;7.75;4.35;;;;;;;18.94;60.53;100843.22;10458146;28;20052;-81
2021/07/31 20:11:10;;;;;;;8.52;3.97;;;;;;;19.52;60.32;100967.25;10457571;28;20139;-81
2021/07/31 20:16:11;;;;;;;8.55;3.92;;;;;;;19.39;60.66;100953.88;10473708;28;20090;-80
2021/07/31 20:21:20;;;;;;;3.85;3.55;;;;;;;19.31;60.82;100957.91;10472139;28;20423;-81
2021/07/31 20:26:21;;;;;;;5.53;3.78;;;;;;;19.22;60.75;100951.19;10490979;28;20063;-81
2021/07/31 20:31:30;;;;;;;6.15;4.32;;;;;;;19.10;60.66;100956.78;10490938;28;20135;-81
2021/07/31 20:36:30;;;;;;;5.05;4.30;;;;;;;19.00;61.46;100962.97;10496278;28;20059;-80
2021/07/31 20:41:33;;;;;;;7.57;5.25;;;;;;;18.96;61.52;100966.50;10462156;28;20118;-81
2021/07/31 20:46:43;;;;;;;6.57;5.68;;;;;;;18.90;61.62;100964.75;10457439;28;20346;-81
2021/07/31 20:51:48;;;;;;;7.32;6.03;;;;;;;18.74;62.43;100942.56;10492763;28;20120;-80
2021/07/31 20:56:49;;;;;;;7.78;5.22;;;;;;;18.38;62.25;100894.53;10474150;28;20547;-81
2021/07/31 21:01:50;;;;;;;7.43;5.70;;;;;;;18.83;62.94;100975.91;10473542;28;20184;-81
2021/07/31 21:07:08;;;;;;;17.08;5.90;;;;;;;18.68;62.22;100970.94;10466267;28;20368;-80
2021/07/31 21:12:09;;;;;;;6.63;5.35;;;;;;;18.69;63.79;100967.13;10487854;28;20043;-81
2021/07/31 21:17:11;;;;;;;13.50;7.70;;;;;;;18.62;63.76;100968.38;10471621;28;20128;-81
2021/07/31 21:22:22;;;;;;;8.90;8.00;;;;;;;18.59;64.49;100972.44;10453959;28;20055;-80
2021/07/31 21:27:23;;;;;;;12.80;6.32;;;;;;;18.45;64.04;100965.63;10478574;28;20064;-80
2021/07/31 21:32:28;;;;;;;15.52;8.27;;;;;;;18.49;63.90;100972.28;10476914;28;20068;-80
2021/07/31 21:37:30;;;;;;;11.75;7.35;;;;;;;18.28;65.32;100958.22;10444667;28;20063;-80
2021/07/31 21:42:32;;;;;;;9.98;8.55;;;;;;;18.33;65.34;100963.78;10477249;28;20455;-80
2021/07/31 21:47:34;;;;;;;13.93;8.07;;;;;;;18.31;65.36;100965.97;10477728;28;20392;-80
2021/07/31 21:52:44;;;;;;;17.67;8.63;;;;;;;18.28;65.39;100958.22;10476815;28;20131;-80
2021/07/31 21:57:45;;;;;;;15.32;9.75;;;;;;;18.20;66.09;100957.81;10476600;28;20048;-80
2021/07/31 22:02:45;;;;;;;17.10;9.45;;;;;;;18.02;65.77;100923.22;10446466;28;20032;-80
2021/07/31 22:07:46;;;;;;;13.43;8.43;;;;;;;18.29;65.79;100956.31;10460277;28;20044;-80
2021/07/31 22:12:48;;;;;;;11.45;8.95;;;;;;;18.22;66.33;100945.50;10476605;28;20032;-80
2021/07/31 22:17:52;;;;;;;16.23;8.65;;;;;;;18.30;66.36;100941.53;10459860;28;20574;-81
2021/07/31 22:22:54;;;;;;;18.70;8.55;;;;;;;17.90;66.58;100868.50;10462411;28;20037;-81
2021/07/31 22:27:57;;;;;;;13.63;11.52;;;;;;;18.24;66.98;100940.59;10461756;28;20053;-81
2021/07/31 22:33:04;;;;;;;19.25;12.05;;;;;;;18.22;67.02;100933.69;10464327;28;20065;-81
2021/07/31 22:38:04;;;;;;;26.13;11.45;;;;;;;18.11;68.13;100940.91;10479633;28;20040;-81
2021/07/31 22:43:07;;;;;;;11.75;8.05;;;;;;;18.26;67.30;100941.19;10480888;28;20029;-81
2021/07/31 22:48:07;;;;;;;19.73;9.00;;;;;;;17.85;67.29;100876.59;10464875;28;20040;-81
2021/07/31 22:53:11;;;;;;;15.02;9.20;;;;;;;18.20;68.04;100938.59;10466542;28;20123;-80
2021/07/31 22:58:15;;;;;;;16.67;9.43;;;;;;;18.21;67.65;100908.19;10483376;28;20055;-80
2021/07/31 23:03:28;;;;;;;21.27;8.30;;;;;;;18.46;66.72;100939.88;10466439;28;20037;-81